sensor_id;sensor_type;location;lat;lon;timestamp;temperature;humidity
69598;SHT31;70000;51.176;-115.568;2023-11-18T00:00:38;1.92;58.81
69598;SHT31;70000;51.176;-115.568;2023-11-18T00:03:09;1.92;58.79
69598;SHT31;70000;51.176;-115.568;2023-11-18T00:05:38;1.91;58.84
69598;SHT31;70000;51.176;-115.568;2023-11-18T00:08:07;1.87;58.82
69598;SHT31;70000;51.176;-115.568;2023-11-18T00:10:36;1.81;58.86
69598;SHT31;70000;51.176;-115.568;2023-11-18T00:13:07;1.72;58.97
69598;SHT31;70000;51.176;-115.568;2023-11-18T00:15:36;1.59;59.16
69598;SHT31;70000;51.176;-115.568;2023-11-18T00:18:06;1.52;59.38
69598;SHT31;70000;51.176;-115.568;2023-11-18T00:20:36;1.46;59.61
69598;SHT31;70000;51.176;-115.568;2023-11-18T00:23:05;1.48;59.70
69598;SHT31;70000;51.176;-115.568;2023-11-18T00:25:35;1.54;59.58
69598;SHT31;70000;51.176;-115.568;2023-11-18T00:28:07;1.58;59.46
69598;SHT31;70000;51.176;-115.568;2023-11-18T00:30:37;1.58;59.43
69598;SHT31;70000;51.176;-115.568;2023-11-18T00:33:07;1.54;59.45
69598;SHT31;70000;51.176;-115.568;2023-11-18T00:35:37;1.49;59.54
69598;SHT31;70000;51.176;-115.568;2023-11-18T00:38:06;1.46;59.59
69598;SHT31;70000;51.176;-115.568;2023-11-18T00:40:36;1.42;59.64
69598;SHT31;70000;51.176;-115.568;2023-11-18T00:43:05;1.39;59.71
69598;SHT31;70000;51.176;-115.568;2023-11-18T00:45:36;1.35;59.93
69598;SHT31;70000;51.176;-115.568;2023-11-18T00:48:06;1.32;60.11
69598;SHT31;70000;51.176;-115.568;2023-11-18T00:50:36;1.28;60.18
69598;SHT31;70000;51.176;-115.568;2023-11-18T00:53:06;1.23;60.21
69598;SHT31;70000;51.176;-115.568;2023-11-18T00:55:38;1.16;60.32
69598;SHT31;70000;51.176;-115.568;2023-11-18T00:58:08;1.07;60.58
69598;SHT31;70000;51.176;-115.568;2023-11-18T01:00:38;0.99;60.77
69598;SHT31;70000;51.176;-115.568;2023-11-18T01:03:08;0.95;60.83
69598;SHT31;70000;51.176;-115.568;2023-11-18T01:05:38;0.92;60.88
69598;SHT31;70000;51.176;-115.568;2023-11-18T01:08:08;0.92;60.94
69598;SHT31;70000;51.176;-115.568;2023-11-18T01:10:38;0.92;61.04
69598;SHT31;70000;51.176;-115.568;2023-11-18T01:13:07;0.91;61.09
69598;SHT31;70000;51.176;-115.568;2023-11-18T01:15:37;0.92;61.07
69598;SHT31;70000;51.176;-115.568;2023-11-18T01:18:06;0.93;61.02
69598;SHT31;70000;51.176;-115.568;2023-11-18T01:20:37;0.92;61.00
69598;SHT31;70000;51.176;-115.568;2023-11-18T01:23:06;0.89;61.05
69598;SHT31;70000;51.176;-115.568;2023-11-18T01:25:36;0.86;61.08
69598;SHT31;70000;51.176;-115.568;2023-11-18T01:28:08;0.83;61.11
69598;SHT31;70000;51.176;-115.568;2023-11-18T01:30:37;0.82;61.17
69598;SHT31;70000;51.176;-115.568;2023-11-18T01:33:07;0.84;61.10
69598;SHT31;70000;51.176;-115.568;2023-11-18T01:35:37;0.83;61.00
69598;SHT31;70000;51.176;-115.568;2023-11-18T01:38:07;0.80;61.05
69598;SHT31;70000;51.176;-115.568;2023-11-18T01:40:36;0.78;61.13
69598;SHT31;70000;51.176;-115.568;2023-11-18T01:43:08;0.76;61.20
69598;SHT31;70000;51.176;-115.568;2023-11-18T01:45:41;0.73;61.27
69598;SHT31;70000;51.176;-115.568;2023-11-18T01:48:11;0.68;61.36
69598;SHT31;70000;51.176;-115.568;2023-11-18T01:50:44;0.65;61.50
69598;SHT31;70000;51.176;-115.568;2023-11-18T01:53:15;0.62;61.50
69598;SHT31;70000;51.176;-115.568;2023-11-18T01:55:44;0.59;61.50
69598;SHT31;70000;51.176;-115.568;2023-11-18T01:58:17;0.56;61.58
69598;SHT31;70000;51.176;-115.568;2023-11-18T02:00:53;0.54;61.68
69598;SHT31;70000;51.176;-115.568;2023-11-18T02:03:34;0.53;61.77
69598;SHT31;70000;51.176;-115.568;2023-11-18T02:06:13;0.55;61.85
69598;SHT31;70000;51.176;-115.568;2023-11-18T02:08:44;0.54;61.80
69598;SHT31;70000;51.176;-115.568;2023-11-18T02:15:05;0.59;61.80
69598;SHT31;70000;51.176;-115.568;2023-11-18T02:17:38;0.60;61.74
69598;SHT31;70000;51.176;-115.568;2023-11-18T02:20:12;0.61;61.60
69598;SHT31;70000;51.176;-115.568;2023-11-18T02:22:44;0.61;61.65
69598;SHT31;70000;51.176;-115.568;2023-11-18T02:25:17;0.62;61.60
69598;SHT31;70000;51.176;-115.568;2023-11-18T02:27:57;0.60;61.60
69598;SHT31;70000;51.176;-115.568;2023-11-18T02:30:44;0.59;61.60
69598;SHT31;70000;51.176;-115.568;2023-11-18T02:36:23;0.54;61.59
69598;SHT31;70000;51.176;-115.568;2023-11-18T02:39:08;0.50;61.60
69598;SHT31;70000;51.176;-115.568;2023-11-18T02:42:24;0.46;61.67
69598;SHT31;70000;51.176;-115.568;2023-11-18T02:44:55;0.44;61.72
69598;SHT31;70000;51.176;-115.568;2023-11-18T02:47:27;0.45;61.77
69598;SHT31;70000;51.176;-115.568;2023-11-18T02:49:57;0.46;61.88
69598;SHT31;70000;51.176;-115.568;2023-11-18T02:52:38;0.47;61.82
69598;SHT31;70000;51.176;-115.568;2023-11-18T02:55:11;0.48;61.85
69598;SHT31;70000;51.176;-115.568;2023-11-18T03:00:48;0.48;61.87
69598;SHT31;70000;51.176;-115.568;2023-11-18T03:03:29;0.49;61.80
69598;SHT31;70000;51.176;-115.568;2023-11-18T03:06:12;0.50;61.78
69598;SHT31;70000;51.176;-115.568;2023-11-18T03:08:43;0.51;61.79
69598;SHT31;70000;51.176;-115.568;2023-11-18T03:11:15;0.50;61.79
69598;SHT31;70000;51.176;-115.568;2023-11-18T03:13:45;0.47;61.80
69598;SHT31;70000;51.176;-115.568;2023-11-18T03:16:14;0.47;61.77
69598;SHT31;70000;51.176;-115.568;2023-11-18T03:18:44;0.44;61.80
69598;SHT31;70000;51.176;-115.568;2023-11-18T03:21:28;0.41;61.89
69598;SHT31;70000;51.176;-115.568;2023-11-18T03:24:10;0.39;62.01
69598;SHT31;70000;51.176;-115.568;2023-11-18T03:26:42;0.38;62.11
69598;SHT31;70000;51.176;-115.568;2023-11-18T03:29:12;0.36;62.20
69598;SHT31;70000;51.176;-115.568;2023-11-18T03:31:41;0.32;62.22
69598;SHT31;70000;51.176;-115.568;2023-11-18T03:34:12;0.31;62.23
69598;SHT31;70000;51.176;-115.568;2023-11-18T03:36:41;0.29;62.19
69598;SHT31;70000;51.176;-115.568;2023-11-18T03:39:14;0.27;62.20
69598;SHT31;70000;51.176;-115.568;2023-11-18T03:41:43;0.28;62.20
69598;SHT31;70000;51.176;-115.568;2023-11-18T03:44:13;0.28;62.34
69598;SHT31;70000;51.176;-115.568;2023-11-18T03:46:42;0.23;62.30
69598;SHT31;70000;51.176;-115.568;2023-11-18T03:49:11;0.21;62.24
69598;SHT31;70000;51.176;-115.568;2023-11-18T03:51:40;0.18;62.30
69598;SHT31;70000;51.176;-115.568;2023-11-18T03:54:10;0.16;62.38
69598;SHT31;70000;51.176;-115.568;2023-11-18T03:56:41;0.12;62.43
69598;SHT31;70000;51.176;-115.568;2023-11-18T03:59:11;0.09;62.50
69598;SHT31;70000;51.176;-115.568;2023-11-18T04:01:41;0.08;62.50
69598;SHT31;70000;51.176;-115.568;2023-11-18T04:04:11;0.07;62.56
69598;SHT31;70000;51.176;-115.568;2023-11-18T04:06:43;0.07;62.60
69598;SHT31;70000;51.176;-115.568;2023-11-18T04:09:32;0.06;62.61
69598;SHT31;70000;51.176;-115.568;2023-11-18T04:12:02;0.06;62.58
69598;SHT31;70000;51.176;-115.568;2023-11-18T04:14:33;0.05;62.53
69598;SHT31;70000;51.176;-115.568;2023-11-18T04:17:02;0.05;62.49
69598;SHT31;70000;51.176;-115.568;2023-11-18T04:19:32;0.03;62.40
69598;SHT31;70000;51.176;-115.568;2023-11-18T04:22:06;0.02;62.40
69598;SHT31;70000;51.176;-115.568;2023-11-18T04:24:39;0.02;62.40
69598;SHT31;70000;51.176;-115.568;2023-11-18T04:27:11;0.02;62.42
69598;SHT31;70000;51.176;-115.568;2023-11-18T04:29:43;0.03;62.42
69598;SHT31;70000;51.176;-115.568;2023-11-18T04:32:12;0.05;62.44
69598;SHT31;70000;51.176;-115.568;2023-11-18T04:35:04;0.04;62.62
69598;SHT31;70000;51.176;-115.568;2023-11-18T04:37:37;0.01;62.72
69598;SHT31;70000;51.176;-115.568;2023-11-18T04:40:10;-0.00;62.78
69598;SHT31;70000;51.176;-115.568;2023-11-18T04:42:40;-0.01;62.79
69598;SHT31;70000;51.176;-115.568;2023-11-18T04:48:55;-0.09;62.80
69598;SHT31;70000;51.176;-115.568;2023-11-18T04:51:24;-0.14;62.92
69598;SHT31;70000;51.176;-115.568;2023-11-18T04:53:56;-0.18;63.00
69598;SHT31;70000;51.176;-115.568;2023-11-18T04:56:24;-0.24;63.18
69598;SHT31;70000;51.176;-115.568;2023-11-18T04:58:53;-0.31;63.28
69598;SHT31;70000;51.176;-115.568;2023-11-18T05:01:21;-0.38;63.47
69598;SHT31;70000;51.176;-115.568;2023-11-18T05:03:53;-0.41;63.57
69598;SHT31;70000;51.176;-115.568;2023-11-18T05:06:22;-0.43;63.58
69598;SHT31;70000;51.176;-115.568;2023-11-18T05:08:51;-0.45;63.59
69598;SHT31;70000;51.176;-115.568;2023-11-18T05:11:20;-0.47;63.60
69598;SHT31;70000;51.176;-115.568;2023-11-18T05:13:48;-0.48;63.60
69598;SHT31;70000;51.176;-115.568;2023-11-18T05:16:17;-0.49;63.62
69598;SHT31;70000;51.176;-115.568;2023-11-18T05:18:48;-0.56;63.70
69598;SHT31;70000;51.176;-115.568;2023-11-18T05:21:18;-0.62;63.86
69598;SHT31;70000;51.176;-115.568;2023-11-18T05:23:49;-0.62;64.02
69598;SHT31;70000;51.176;-115.568;2023-11-18T05:26:17;-0.56;63.95
69598;SHT31;70000;51.176;-115.568;2023-11-18T05:28:46;-0.52;63.91
69598;SHT31;70000;51.176;-115.568;2023-11-18T05:31:16;-0.47;63.76
69598;SHT31;70000;51.176;-115.568;2023-11-18T05:33:47;-0.45;63.71
69598;SHT31;70000;51.176;-115.568;2023-11-18T05:36:22;-0.45;63.71
69598;SHT31;70000;51.176;-115.568;2023-11-18T05:38:54;-0.44;63.68
69598;SHT31;70000;51.176;-115.568;2023-11-18T05:41:23;-0.44;63.60
69598;SHT31;70000;51.176;-115.568;2023-11-18T05:43:57;-0.44;63.65
69598;SHT31;70000;51.176;-115.568;2023-11-18T05:46:26;-0.47;63.69
69598;SHT31;70000;51.176;-115.568;2023-11-18T05:49:02;-0.48;63.67
69598;SHT31;70000;51.176;-115.568;2023-11-18T05:51:36;-0.52;63.73
69598;SHT31;70000;51.176;-115.568;2023-11-18T05:54:06;-0.56;63.70
69598;SHT31;70000;51.176;-115.568;2023-11-18T05:56:41;-0.59;63.65
69598;SHT31;70000;51.176;-115.568;2023-11-18T05:59:12;-0.60;63.60
69598;SHT31;70000;51.176;-115.568;2023-11-18T06:01:41;-0.61;63.59
69598;SHT31;70000;51.176;-115.568;2023-11-18T06:04:10;-0.63;63.61
69598;SHT31;70000;51.176;-115.568;2023-11-18T06:06:38;-0.65;63.62
69598;SHT31;70000;51.176;-115.568;2023-11-18T06:09:07;-0.69;63.61
69598;SHT31;70000;51.176;-115.568;2023-11-18T06:11:51;-0.74;63.73
69598;SHT31;70000;51.176;-115.568;2023-11-18T06:14:23;-0.76;63.99
69598;SHT31;70000;51.176;-115.568;2023-11-18T06:16:53;-0.70;63.96
69598;SHT31;70000;51.176;-115.568;2023-11-18T06:19:22;-0.70;63.82
69598;SHT31;70000;51.176;-115.568;2023-11-18T06:34:20;-0.82;63.90
69598;SHT31;70000;51.176;-115.568;2023-11-18T06:36:50;-0.82;64.01
69598;SHT31;70000;51.176;-115.568;2023-11-18T06:39:19;-0.84;64.28
69598;SHT31;70000;51.176;-115.568;2023-11-18T06:41:58;-0.85;64.38
69598;SHT31;70000;51.176;-115.568;2023-11-18T06:44:27;-0.88;64.52
69598;SHT31;70000;51.176;-115.568;2023-11-18T06:46:57;-0.89;64.49
69598;SHT31;70000;51.176;-115.568;2023-11-18T06:49:29;-0.92;64.45
69598;SHT31;70000;51.176;-115.568;2023-11-18T06:52:02;-0.96;64.46
69598;SHT31;70000;51.176;-115.568;2023-11-18T06:54:31;-0.96;64.50
69598;SHT31;70000;51.176;-115.568;2023-11-18T06:57:00;-0.98;64.47
69598;SHT31;70000;51.176;-115.568;2023-11-18T06:59:31;-0.99;64.64
69598;SHT31;70000;51.176;-115.568;2023-11-18T07:02:01;-0.99;64.66
69598;SHT31;70000;51.176;-115.568;2023-11-18T07:04:34;-1.01;64.55
69598;SHT31;70000;51.176;-115.568;2023-11-18T07:07:03;-1.04;64.39
69598;SHT31;70000;51.176;-115.568;2023-11-18T07:09:36;-1.06;64.39
69598;SHT31;70000;51.176;-115.568;2023-11-18T07:12:07;-1.10;64.40
69598;SHT31;70000;51.176;-115.568;2023-11-18T07:14:36;-1.13;64.44
69598;SHT31;70000;51.176;-115.568;2023-11-18T07:17:06;-1.20;64.52
69598;SHT31;70000;51.176;-115.568;2023-11-18T07:19:36;-1.25;64.69
69598;SHT31;70000;51.176;-115.568;2023-11-18T07:22:05;-1.27;64.70
69598;SHT31;70000;51.176;-115.568;2023-11-18T07:24:34;-1.27;64.71
69598;SHT31;70000;51.176;-115.568;2023-11-18T07:27:04;-1.31;64.65
69598;SHT31;70000;51.176;-115.568;2023-11-18T07:29:34;-1.35;64.70
69598;SHT31;70000;51.176;-115.568;2023-11-18T07:32:03;-1.37;64.71
69598;SHT31;70000;51.176;-115.568;2023-11-18T07:34:38;-1.40;64.68
69598;SHT31;70000;51.176;-115.568;2023-11-18T07:37:08;-1.45;64.70
69598;SHT31;70000;51.176;-115.568;2023-11-18T07:39:38;-1.47;64.78
69598;SHT31;70000;51.176;-115.568;2023-11-18T07:42:16;-1.48;64.94
69598;SHT31;70000;51.176;-115.568;2023-11-18T07:44:45;-1.50;64.97
69598;SHT31;70000;51.176;-115.568;2023-11-18T07:47:15;-1.51;65.05
69598;SHT31;70000;51.176;-115.568;2023-11-18T07:49:44;-1.51;65.12
69598;SHT31;70000;51.176;-115.568;2023-11-18T07:52:14;-1.49;65.10
69598;SHT31;70000;51.176;-115.568;2023-11-18T07:54:43;-1.49;65.08
69598;SHT31;70000;51.176;-115.568;2023-11-18T07:57:12;-1.50;65.06
69598;SHT31;70000;51.176;-115.568;2023-11-18T07:59:42;-1.50;65.10
69598;SHT31;70000;51.176;-115.568;2023-11-18T08:02:11;-1.55;65.12
69598;SHT31;70000;51.176;-115.568;2023-11-18T08:04:42;-1.60;65.32
69598;SHT31;70000;51.176;-115.568;2023-11-18T08:07:13;-1.64;65.41
69598;SHT31;70000;51.176;-115.568;2023-11-18T08:09:42;-1.68;65.50
69598;SHT31;70000;51.176;-115.568;2023-11-18T08:17:55;-1.75;65.70
69598;SHT31;70000;51.176;-115.568;2023-11-18T08:20:25;-1.76;65.70
69598;SHT31;70000;51.176;-115.568;2023-11-18T08:22:54;-1.79;65.70
69598;SHT31;70000;51.176;-115.568;2023-11-18T08:25:23;-1.80;65.75
69598;SHT31;70000;51.176;-115.568;2023-11-18T08:27:53;-1.83;65.71
69598;SHT31;70000;51.176;-115.568;2023-11-18T08:30:23;-1.82;65.68
69598;SHT31;70000;51.176;-115.568;2023-11-18T08:32:52;-1.82;65.62
69598;SHT31;70000;51.176;-115.568;2023-11-18T08:35:21;-1.85;65.73
69598;SHT31;70000;51.176;-115.568;2023-11-18T08:37:51;-1.92;65.85
69598;SHT31;70000;51.176;-115.568;2023-11-18T08:40:20;-1.95;66.03
69598;SHT31;70000;51.176;-115.568;2023-11-18T08:42:53;-1.99;66.10
69598;SHT31;70000;51.176;-115.568;2023-11-18T08:45:26;-2.03;66.09
69598;SHT31;70000;51.176;-115.568;2023-11-18T08:48:01;-2.09;66.18
69598;SHT31;70000;51.176;-115.568;2023-11-18T08:53:44;-2.14;66.30
69598;SHT31;70000;51.176;-115.568;2023-11-18T08:56:13;-2.17;66.34
69598;SHT31;70000;51.176;-115.568;2023-11-18T08:58:43;-2.22;66.37
69598;SHT31;70000;51.176;-115.568;2023-11-18T09:01:12;-2.27;66.46
69598;SHT31;70000;51.176;-115.568;2023-11-18T09:03:42;-2.28;66.55
69598;SHT31;70000;51.176;-115.568;2023-11-18T09:06:16;-2.30;66.57
69598;SHT31;70000;51.176;-115.568;2023-11-18T09:08:46;-2.33;66.63
69598;SHT31;70000;51.176;-115.568;2023-11-18T09:11:22;-2.34;66.75
69598;SHT31;70000;51.176;-115.568;2023-11-18T09:13:56;-2.37;66.80
69598;SHT31;70000;51.176;-115.568;2023-11-18T09:16:28;-2.40;66.85
69598;SHT31;70000;51.176;-115.568;2023-11-18T09:22:19;-2.49;67.17
69598;SHT31;70000;51.176;-115.568;2023-11-18T09:25:27;-2.51;67.30
69598;SHT31;70000;51.176;-115.568;2023-11-18T09:27:55;-2.51;67.33
69598;SHT31;70000;51.176;-115.568;2023-11-18T09:30:25;-2.52;67.40
69598;SHT31;70000;51.176;-115.568;2023-11-18T09:32:53;-2.53;67.46
69598;SHT31;70000;51.176;-115.568;2023-11-18T09:35:22;-2.55;67.70
69598;SHT31;70000;51.176;-115.568;2023-11-18T09:37:51;-2.60;67.87
69598;SHT31;70000;51.176;-115.568;2023-11-18T09:40:20;-2.63;67.79
69598;SHT31;70000;51.176;-115.568;2023-11-18T09:42:53;-2.63;67.87
69598;SHT31;70000;51.176;-115.568;2023-11-18T09:45:25;-2.70;68.02
69598;SHT31;70000;51.176;-115.568;2023-11-18T09:47:55;-2.77;68.11
69598;SHT31;70000;51.176;-115.568;2023-11-18T09:50:28;-2.84;68.28
69598;SHT31;70000;51.176;-115.568;2023-11-18T09:53:00;-2.88;68.35
69598;SHT31;70000;51.176;-115.568;2023-11-18T09:55:59;-2.90;68.44
69598;SHT31;70000;51.176;-115.568;2023-11-18T09:58:49;-2.97;68.33
69598;SHT31;70000;51.176;-115.568;2023-11-18T10:01:34;-3.07;68.38
69598;SHT31;70000;51.176;-115.568;2023-11-18T10:04:14;-3.11;68.58
69598;SHT31;70000;51.176;-115.568;2023-11-18T10:06:45;-3.15;68.68
69598;SHT31;70000;51.176;-115.568;2023-11-18T10:09:16;-3.21;68.75
69598;SHT31;70000;51.176;-115.568;2023-11-18T10:11:55;-3.24;68.78
69598;SHT31;70000;51.176;-115.568;2023-11-18T10:14:33;-3.25;68.71
69598;SHT31;70000;51.176;-115.568;2023-11-18T10:17:06;-3.27;68.66
69598;SHT31;70000;51.176;-115.568;2023-11-18T10:22:25;-3.27;68.63
69598;SHT31;70000;51.176;-115.568;2023-11-18T10:24:59;-3.28;68.70
69598;SHT31;70000;51.176;-115.568;2023-11-18T10:27:28;-3.27;68.62
69598;SHT31;70000;51.176;-115.568;2023-11-18T10:30:01;-3.28;68.60
69598;SHT31;70000;51.176;-115.568;2023-11-18T10:32:59;-3.29;68.56
69598;SHT31;70000;51.176;-115.568;2023-11-18T10:35:34;-3.32;68.61
69598;SHT31;70000;51.176;-115.568;2023-11-18T10:38:04;-3.33;68.63
69598;SHT31;70000;51.176;-115.568;2023-11-18T10:40:34;-3.35;68.60
69598;SHT31;70000;51.176;-115.568;2023-11-18T10:43:04;-3.35;68.64
69598;SHT31;70000;51.176;-115.568;2023-11-18T10:45:37;-3.35;68.68
69598;SHT31;70000;51.176;-115.568;2023-11-18T10:48:11;-3.34;68.68
69598;SHT31;70000;51.176;-115.568;2023-11-18T10:50:45;-3.34;68.70
69598;SHT31;70000;51.176;-115.568;2023-11-18T10:53:18;-3.36;68.83
69598;SHT31;70000;51.176;-115.568;2023-11-18T10:55:48;-3.37;68.89
69598;SHT31;70000;51.176;-115.568;2023-11-18T10:58:17;-3.41;68.90
69598;SHT31;70000;51.176;-115.568;2023-11-18T11:00:47;-3.45;68.97
69598;SHT31;70000;51.176;-115.568;2023-11-18T11:03:18;-3.49;69.05
69598;SHT31;70000;51.176;-115.568;2023-11-18T11:05:50;-3.50;69.11
69598;SHT31;70000;51.176;-115.568;2023-11-18T11:08:21;-3.53;69.10
69598;SHT31;70000;51.176;-115.568;2023-11-18T11:11:07;-3.57;69.11
69598;SHT31;70000;51.176;-115.568;2023-11-18T11:13:37;-3.63;69.17
69598;SHT31;70000;51.176;-115.568;2023-11-18T11:16:09;-3.64;69.28
69598;SHT31;70000;51.176;-115.568;2023-11-18T11:18:52;-3.65;69.28
69598;SHT31;70000;51.176;-115.568;2023-11-18T11:21:27;-3.66;69.34
69598;SHT31;70000;51.176;-115.568;2023-11-18T11:24:04;-3.68;69.41
69598;SHT31;70000;51.176;-115.568;2023-11-18T11:26:55;-3.73;69.49
69598;SHT31;70000;51.176;-115.568;2023-11-18T11:29:51;-3.75;69.40
69598;SHT31;70000;51.176;-115.568;2023-11-18T11:33:00;-3.74;69.43
69598;SHT31;70000;51.176;-115.568;2023-11-18T11:36:20;-3.75;69.60
69598;SHT31;70000;51.176;-115.568;2023-11-18T11:38:54;-3.80;69.69
69598;SHT31;70000;51.176;-115.568;2023-11-18T11:41:23;-3.85;69.77
69598;SHT31;70000;51.176;-115.568;2023-11-18T11:43:56;-3.90;69.93
69598;SHT31;70000;51.176;-115.568;2023-11-18T11:46:26;-3.90;69.91
69598;SHT31;70000;51.176;-115.568;2023-11-18T11:49:01;-3.89;70.00
69598;SHT31;70000;51.176;-115.568;2023-11-18T11:51:48;-3.88;70.10
69598;SHT31;70000;51.176;-115.568;2023-11-18T11:54:52;-3.86;70.07
69598;SHT31;70000;51.176;-115.568;2023-11-18T11:57:53;-3.85;70.00
69598;SHT31;70000;51.176;-115.568;2023-11-18T12:00:25;-3.89;70.02
69598;SHT31;70000;51.176;-115.568;2023-11-18T12:03:01;-3.92;70.00
69598;SHT31;70000;51.176;-115.568;2023-11-18T12:05:39;-3.94;70.02
69598;SHT31;70000;51.176;-115.568;2023-11-18T12:08:11;-3.98;70.10
69598;SHT31;70000;51.176;-115.568;2023-11-18T12:10:40;-4.00;70.17
69598;SHT31;70000;51.176;-115.568;2023-11-18T12:13:21;-3.95;70.30
69598;SHT31;70000;51.176;-115.568;2023-11-18T12:15:53;-3.94;70.30
69598;SHT31;70000;51.176;-115.568;2023-11-18T12:18:31;-3.95;70.37
69598;SHT31;70000;51.176;-115.568;2023-11-18T12:21:01;-3.96;70.34
69598;SHT31;70000;51.176;-115.568;2023-11-18T12:23:35;-3.99;70.40
69598;SHT31;70000;51.176;-115.568;2023-11-18T12:26:31;-3.99;70.39
69598;SHT31;70000;51.176;-115.568;2023-11-18T12:29:30;-3.95;70.30
69598;SHT31;70000;51.176;-115.568;2023-11-18T12:32:01;-3.94;70.30
69598;SHT31;70000;51.176;-115.568;2023-11-18T12:34:55;-3.93;70.30
69598;SHT31;70000;51.176;-115.568;2023-11-18T12:40:44;-3.90;70.71
69598;SHT31;70000;51.176;-115.568;2023-11-18T12:43:46;-3.90;70.67
69598;SHT31;70000;51.176;-115.568;2023-11-18T12:49:24;-3.90;70.45
69598;SHT31;70000;51.176;-115.568;2023-11-18T12:51:53;-3.91;70.38
69598;SHT31;70000;51.176;-115.568;2023-11-18T12:54:24;-3.94;70.40
69598;SHT31;70000;51.176;-115.568;2023-11-18T12:56:57;-3.98;70.51
69598;SHT31;70000;51.176;-115.568;2023-11-18T12:59:28;-3.98;70.65
69598;SHT31;70000;51.176;-115.568;2023-11-18T13:01:57;-4.00;70.82
69598;SHT31;70000;51.176;-115.568;2023-11-18T13:04:26;-3.96;70.93
69598;SHT31;70000;51.176;-115.568;2023-11-18T13:06:55;-3.93;70.99
69598;SHT31;70000;51.176;-115.568;2023-11-18T13:09:26;-3.90;71.14
69598;SHT31;70000;51.176;-115.568;2023-11-18T13:11:59;-3.89;71.24
69598;SHT31;70000;51.176;-115.568;2023-11-18T13:14:32;-3.85;71.20
69598;SHT31;70000;51.176;-115.568;2023-11-18T13:17:04;-3.83;71.14
69598;SHT31;70000;51.176;-115.568;2023-11-18T13:19:41;-3.87;71.21
69598;SHT31;70000;51.176;-115.568;2023-11-18T13:22:13;-3.89;71.14
69598;SHT31;70000;51.176;-115.568;2023-11-18T13:24:42;-3.92;70.91
69598;SHT31;70000;51.176;-115.568;2023-11-18T13:30:32;-3.98;70.78
69598;SHT31;70000;51.176;-115.568;2023-11-18T13:33:06;-3.97;70.76
69598;SHT31;70000;51.176;-115.568;2023-11-18T13:35:35;-3.95;70.74
69598;SHT31;70000;51.176;-115.568;2023-11-18T13:38:05;-3.93;70.71
69598;SHT31;70000;51.176;-115.568;2023-11-18T13:40:44;-3.94;70.73
69598;SHT31;70000;51.176;-115.568;2023-11-18T13:43:15;-3.94;70.60
69598;SHT31;70000;51.176;-115.568;2023-11-18T13:45:49;-3.94;70.35
69598;SHT31;70000;51.176;-115.568;2023-11-18T13:48:21;-3.96;70.25
69598;SHT31;70000;51.176;-115.568;2023-11-18T13:50:51;-3.99;70.06
69598;SHT31;70000;51.176;-115.568;2023-11-18T13:53:21;-4.00;70.02
69598;SHT31;70000;51.176;-115.568;2023-11-18T13:55:54;-4.01;70.01
69598;SHT31;70000;51.176;-115.568;2023-11-18T13:58:23;-4.01;69.99
69598;SHT31;70000;51.176;-115.568;2023-11-18T14:00:56;-3.99;69.96
69598;SHT31;70000;51.176;-115.568;2023-11-18T14:03:25;-3.98;69.83
69598;SHT31;70000;51.176;-115.568;2023-11-18T14:05:57;-4.01;69.75
69598;SHT31;70000;51.176;-115.568;2023-11-18T14:08:30;-4.04;69.77
69598;SHT31;70000;51.176;-115.568;2023-11-18T14:11:01;-4.07;69.89
69598;SHT31;70000;51.176;-115.568;2023-11-18T14:13:42;-4.06;69.87
69598;SHT31;70000;51.176;-115.568;2023-11-18T14:16:11;-4.06;69.75
69598;SHT31;70000;51.176;-115.568;2023-11-18T14:18:44;-4.08;69.73
69598;SHT31;70000;51.176;-115.568;2023-11-18T14:21:15;-4.07;69.69
69598;SHT31;70000;51.176;-115.568;2023-11-18T14:23:45;-4.08;69.72
69598;SHT31;70000;51.176;-115.568;2023-11-18T14:26:18;-4.10;69.78
69598;SHT31;70000;51.176;-115.568;2023-11-18T14:28:48;-4.13;69.86
69598;SHT31;70000;51.176;-115.568;2023-11-18T14:31:18;-4.16;69.93
69598;SHT31;70000;51.176;-115.568;2023-11-18T14:33:47;-4.18;70.08
69598;SHT31;70000;51.176;-115.568;2023-11-18T14:36:17;-4.19;70.12
69598;SHT31;70000;51.176;-115.568;2023-11-18T14:38:47;-4.20;70.37
69598;SHT31;70000;51.176;-115.568;2023-11-18T14:41:17;-4.20;70.45
69598;SHT31;70000;51.176;-115.568;2023-11-18T14:43:48;-4.21;70.36
69598;SHT31;70000;51.176;-115.568;2023-11-18T14:46:17;-4.21;70.31
69598;SHT31;70000;51.176;-115.568;2023-11-18T14:48:46;-4.20;70.27
69598;SHT31;70000;51.176;-115.568;2023-11-18T14:51:16;-4.21;70.22
69598;SHT31;70000;51.176;-115.568;2023-11-18T14:53:45;-4.22;70.30
69598;SHT31;70000;51.176;-115.568;2023-11-18T14:56:15;-4.21;70.30
69598;SHT31;70000;51.176;-115.568;2023-11-18T14:58:45;-4.19;70.27
69598;SHT31;70000;51.176;-115.568;2023-11-18T15:01:17;-4.19;70.20
69598;SHT31;70000;51.176;-115.568;2023-11-18T15:03:47;-4.19;70.19
69598;SHT31;70000;51.176;-115.568;2023-11-18T15:06:25;-4.20;70.20
69598;SHT31;70000;51.176;-115.568;2023-11-18T15:08:56;-4.20;70.20
69598;SHT31;70000;51.176;-115.568;2023-11-18T15:11:26;-4.21;70.20
69598;SHT31;70000;51.176;-115.568;2023-11-18T15:13:57;-4.21;70.21
69598;SHT31;70000;51.176;-115.568;2023-11-18T15:16:26;-4.23;70.40
69598;SHT31;70000;51.176;-115.568;2023-11-18T15:18:56;-4.21;70.53
69598;SHT31;70000;51.176;-115.568;2023-11-18T15:21:25;-4.19;70.60
69598;SHT31;70000;51.176;-115.568;2023-11-18T15:23:57;-4.18;70.73
69598;SHT31;70000;51.176;-115.568;2023-11-18T15:26:31;-4.15;70.76
69598;SHT31;70000;51.176;-115.568;2023-11-18T15:29:00;-4.14;70.81
69598;SHT31;70000;51.176;-115.568;2023-11-18T15:31:31;-4.14;70.83
69598;SHT31;70000;51.176;-115.568;2023-11-18T15:34:00;-4.15;70.81
69598;SHT31;70000;51.176;-115.568;2023-11-18T15:36:29;-4.15;70.78
69598;SHT31;70000;51.176;-115.568;2023-11-18T15:38:59;-4.17;70.80
69598;SHT31;70000;51.176;-115.568;2023-11-18T15:41:30;-4.16;70.75
69598;SHT31;70000;51.176;-115.568;2023-11-18T15:44:01;-4.16;70.75
69598;SHT31;70000;51.176;-115.568;2023-11-18T15:46:31;-4.15;70.78
69598;SHT31;70000;51.176;-115.568;2023-11-18T15:49:05;-4.15;70.71
69598;SHT31;70000;51.176;-115.568;2023-11-18T15:51:35;-4.15;70.71
69598;SHT31;70000;51.176;-115.568;2023-11-18T15:54:08;-4.16;70.72
69598;SHT31;70000;51.176;-115.568;2023-11-18T15:56:39;-4.15;70.70
69598;SHT31;70000;51.176;-115.568;2023-11-18T15:59:10;-4.15;70.62
69598;SHT31;70000;51.176;-115.568;2023-11-18T16:01:39;-4.18;70.54
69598;SHT31;70000;51.176;-115.568;2023-11-18T16:04:08;-4.24;70.48
69598;SHT31;70000;51.176;-115.568;2023-11-18T16:06:38;-4.27;70.53
69598;SHT31;70000;51.176;-115.568;2023-11-18T16:09:07;-4.32;70.54
69598;SHT31;70000;51.176;-115.568;2023-11-18T16:11:36;-4.37;70.54
69598;SHT31;70000;51.176;-115.568;2023-11-18T16:14:05;-4.41;70.50
69598;SHT31;70000;51.176;-115.568;2023-11-18T16:16:36;-4.48;70.57